createdAt,value
2023-05-08T00:01:57.435Z,101401.75
2023-05-08T00:04:23.980Z,101407.16
2023-05-08T00:06:51.601Z,101419.66
2023-05-08T00:09:18.053Z,101407.16
2023-05-08T00:11:44.405Z,101403.44
2023-05-08T00:14:10.822Z,101402.63
2023-05-08T00:16:37.460Z,101398.88
2023-05-08T00:19:03.903Z,101405.13
2023-05-08T00:21:31.142Z,101408.66
2023-05-08T00:23:57.490Z,101401.44
2023-05-08T00:26:23.862Z,101403.94
2023-05-08T00:28:50.216Z,101399.38
2023-05-08T00:31:16.578Z,101401.09
2023-05-08T00:33:43.003Z,101410.88
2023-05-08T00:36:09.754Z,101400.88
2023-05-08T00:38:37.094Z,101395.31
2023-05-08T00:41:04.336Z,101396.31
2023-05-08T00:43:30.873Z,101407.81
2023-05-08T00:46:00.411Z,101407.66
2023-05-08T00:48:33.906Z,101403.75
2023-05-08T00:51:02.383Z,101417.28
2023-05-08T00:53:32.807Z,101404.59
2023-05-08T00:56:00.078Z,101406.28
2023-05-08T00:58:27.425Z,101404.44
2023-05-08T01:00:56.116Z,101400.72
2023-05-08T01:03:24.040Z,101403.41
2023-05-08T01:05:50.720Z,101409.84
2023-05-08T01:08:17.213Z,101402.75
2023-05-08T01:11:14.511Z,101408.81
2023-05-08T01:14:02.940Z,101403.41
2023-05-08T01:16:38.692Z,101406.13
2023-05-08T01:19:32.467Z,101406.97
2023-05-08T01:22:43.680Z,101403.41
2023-05-08T01:25:28.733Z,101407.16
2023-05-08T01:28:21.891Z,101404.25
2023-05-08T01:31:10.155Z,101409.84
2023-05-08T01:33:48.735Z,101402.56
2023-05-08T01:36:29.099Z,101408.16
2023-05-08T01:39:12.235Z,101399.19
2023-05-08T01:41:41.152Z,101397.53
2023-05-08T01:44:23.851Z,101400.22
2023-05-08T01:46:52.117Z,101393.94
2023-05-08T01:49:34.233Z,101396.66
2023-05-08T01:52:10.486Z,101402.06
2023-05-08T01:54:44.511Z,101405.78
2023-05-08T01:57:13.326Z,101400.72
2023-05-08T01:59:42.927Z,101402.41
2023-05-08T02:02:10.333Z,101396.50
2023-05-08T02:04:38.248Z,101393.97
2023-05-08T02:07:05.137Z,101398.53
2023-05-08T02:09:32.249Z,101402.25
2023-05-08T02:12:01.122Z,101403.25
2023-05-08T02:14:28.830Z,101408.84
2023-05-08T02:16:57.746Z,101405.47
2023-05-08T02:19:25.813Z,101412.06
2023-05-08T02:21:53.321Z,101418.66
2023-05-08T02:24:21.070Z,101416.09
2023-05-08T02:26:48.845Z,101414.78
2023-05-08T02:29:16.927Z,101415.97
2023-05-08T02:31:45.947Z,101406.34
2023-05-08T02:34:12.654Z,101422.06
2023-05-08T02:36:41.021Z,101418.66
2023-05-08T02:39:11.210Z,101418.00
2023-05-08T02:41:40.654Z,101420.84
2023-05-08T02:44:07.419Z,101416.63
2023-05-08T02:46:36.448Z,101411.22
2023-05-08T02:49:29.061Z,101410.56
2023-05-08T02:52:13.697Z,101411.56
2023-05-08T02:54:44.065Z,101413.78
2023-05-08T02:57:43.538Z,101407.53
2023-05-08T03:00:20.638Z,101411.41
2023-05-08T03:03:12.151Z,101409.88
2023-05-08T03:05:43.019Z,101404.97
2023-05-08T03:08:20.804Z,101399.72
2023-05-08T03:10:51.606Z,101395.69
2023-05-08T03:13:20.995Z,101397.72
2023-05-08T03:15:57.471Z,101395.34
2023-05-08T03:18:31.008Z,101398.41
2023-05-08T03:21:00.197Z,101392.31
2023-05-08T03:23:29.376Z,101393.47
2023-05-08T03:25:58.772Z,101393.00
2023-05-08T03:28:26.235Z,101393.31
2023-05-08T03:30:54.031Z,101392.66
2023-05-08T03:33:23.306Z,101389.09
2023-05-08T03:35:50.990Z,101391.97
2023-05-08T03:38:17.457Z,101391.97
2023-05-08T03:40:45.301Z,101387.41
2023-05-08T03:43:12.086Z,101382.19
2023-05-08T03:45:40.287Z,101384.00
2023-05-08T03:48:08.607Z,101382.31
2023-05-08T03:50:36.455Z,101382.31
2023-05-08T03:53:03.308Z,101381.31
2023-05-08T03:55:33.122Z,101388.41
2023-05-08T03:58:17.474Z,101388.22
2023-05-08T04:00:50.444Z,101392.66
2023-05-08T04:03:24.811Z,101402.41
2023-05-08T04:06:08.086Z,101403.44
2023-05-08T04:08:45.248Z,101397.34
2023-05-08T04:11:30.454Z,101395.81
2023-05-08T04:14:07.045Z,101395.94
2023-05-08T04:16:39.560Z,101396.28
2023-05-08T04:19:28.815Z,101394.63
2023-05-08T04:21:59.368Z,101390.19
2023-05-08T04:24:29.015Z,101393.09
2023-05-08T04:26:55.962Z,101397.81
2023-05-08T04:29:23.045Z,101399.66
2023-05-08T04:31:50.981Z,101404.38
2023-05-08T04:34:18.362Z,101404.38
2023-05-08T04:36:44.697Z,101402.69
2023-05-08T04:39:11.106Z,101400.00
2023-05-08T04:41:37.590Z,101416.00
2023-05-08T04:44:04.580Z,101405.22
2023-05-08T04:46:31.087Z,101407.75
2023-05-08T04:48:57.583Z,101413.66
2023-05-08T04:51:24.068Z,101408.13
2023-05-08T04:53:50.624Z,101409.63
2023-05-08T04:56:16.985Z,101405.91
2023-05-08T04:58:43.399Z,101413.72
2023-05-08T05:01:09.846Z,101418.63
2023-05-08T05:03:36.729Z,101422.50
2023-05-08T05:06:03.333Z,101429.09
2023-05-08T05:08:29.748Z,101421.88
2023-05-08T05:10:56.196Z,101432.50
2023-05-08T05:13:22.732Z,101439.28
2023-05-08T05:15:51.376Z,101433.69
2023-05-08T05:18:18.284Z,101436.91
2023-05-08T05:20:44.795Z,101437.75
2023-05-08T05:23:11.951Z,101440.25
2023-05-08T05:25:38.666Z,101440.25
2023-05-08T05:28:05.229Z,101445.97
2023-05-08T05:30:31.879Z,101441.59
2023-05-08T05:32:58.785Z,101447.31
2023-05-08T05:35:25.760Z,101439.56
2023-05-08T05:37:52.276Z,101447.16
2023-05-08T05:40:18.724Z,101451.22
2023-05-08T05:42:49.876Z,101450.53
2023-05-08T05:45:16.309Z,101449.34
2023-05-08T05:47:49.956Z,101444.91
2023-05-08T05:50:18.395Z,101449.13
2023-05-08T05:52:44.852Z,101448.59
2023-05-08T05:55:11.851Z,101448.09
2023-05-08T05:57:38.590Z,101452.78
2023-05-08T06:00:06.305Z,101458.34
2023-05-08T06:02:35.484Z,101461.88
2023-05-08T06:05:02.405Z,101452.88
2023-05-08T06:07:28.865Z,101448.44
2023-05-08T06:09:56.112Z,101445.00
2023-05-08T06:12:22.648Z,101444.94
2023-05-08T06:14:51.729Z,101446.94
2023-05-08T06:17:18.988Z,101445.38
2023-05-08T06:19:55.950Z,101441.97
2023-05-08T06:22:24.141Z,101438.56
2023-05-08T06:24:54.383Z,101443.06
2023-05-08T06:27:22.038Z,101438.63
2023-05-08T06:29:51.651Z,101446.69
2023-05-08T06:32:18.338Z,101444.75
2023-05-08T06:34:45.322Z,101443.00
2023-05-08T06:37:11.748Z,101429.53
2023-05-08T06:39:38.209Z,101424.22
2023-05-08T06:42:08.613Z,101426.03
2023-05-08T06:44:35.573Z,101426.97
2023-05-08T06:47:02.129Z,101422.47
2023-05-08T06:49:28.769Z,101416.31
2023-05-08T06:51:57.717Z,101413.91
2023-05-08T06:54:24.397Z,101413.16
2023-05-08T06:56:52.762Z,101427.84
2023-05-08T06:59:19.188Z,101411.03
2023-05-08T07:01:45.729Z,101415.03
2023-05-08T07:04:13.022Z,101406.50
2023-05-08T07:06:39.441Z,101420.56
2023-05-08T07:09:05.874Z,101409.31
2023-05-08T07:11:32.306Z,101410.81
2023-05-08T07:13:58.837Z,101417.34
2023-05-08T07:16:25.301Z,101418.69
2023-05-08T07:18:53.033Z,101417.47
2023-05-08T07:21:21.382Z,101424.19
2023-05-08T07:23:50.297Z,101422.97
2023-05-08T07:26:16.716Z,101425.50
2023-05-08T07:28:43.171Z,101419.69
2023-05-08T07:31:10.213Z,101427.28
2023-05-08T07:33:36.639Z,101439.25
2023-05-08T07:36:03.181Z,101437.47
2023-05-08T07:38:29.619Z,101432.09
2023-05-08T07:40:57.535Z,101435.91
2023-05-08T07:43:24.277Z,101429.72
2023-05-08T07:45:50.680Z,101439.16
2023-05-08T07:48:17.185Z,101434.81
2023-05-08T07:50:44.560Z,101435.28
2023-05-08T07:53:11.127Z,101439.31
2023-05-08T07:55:37.607Z,101429.09
2023-05-08T07:58:03.991Z,101442.13
2023-05-08T08:00:30.395Z,101438.81
2023-05-08T08:02:57.408Z,101441.78
2023-05-08T08:05:24.058Z,101441.03
2023-05-08T08:07:50.516Z,101438.34
2023-05-08T08:10:17.100Z,101444.53
2023-05-08T08:12:43.510Z,101443.31
2023-05-08T08:15:10.336Z,101441.94
2023-05-08T08:17:37.643Z,101445.00
2023-05-08T08:20:04.714Z,101441.50
2023-05-08T08:22:31.078Z,101445.19
2023-05-08T08:24:57.714Z,101441.72
2023-05-08T08:27:24.141Z,101447.44
2023-05-08T08:29:52.514Z,101446.25
2023-05-08T08:32:25.228Z,101449.03
2023-05-08T08:34:51.769Z,101441.13
2023-05-08T08:37:18.169Z,101439.47
2023-05-08T08:39:44.617Z,101439.53
2023-05-08T08:42:12.187Z,101439.56
2023-05-08T08:44:40.161Z,101439.59
2023-05-08T08:47:10.761Z,101440.88
2023-05-08T08:49:42.892Z,101449.72
2023-05-08T08:52:22.615Z,101437.56
2023-05-08T08:54:50.402Z,101442.78
2023-05-08T08:57:18.978Z,101442.56
2023-05-08T08:59:45.645Z,101441.06
2023-05-08T09:02:17.583Z,101443.38
2023-05-08T09:04:44.311Z,101442.94
2023-05-08T09:07:12.081Z,101438.06
2023-05-08T09:09:44.403Z,101438.88
2023-05-08T09:12:13.077Z,101433.19
2023-05-08T09:14:39.507Z,101439.69
2023-05-08T09:17:06.107Z,101436.69
2023-05-08T09:19:33.538Z,101433.91
2023-05-08T09:22:00.898Z,101426.53
2023-05-08T09:24:54.737Z,101429.19
2023-05-08T09:27:22.576Z,101428.91
2023-05-08T09:30:04.511Z,101427.38
2023-05-08T09:32:32.453Z,101424.59
2023-05-08T09:34:59.688Z,101430.00
2023-05-08T09:37:27.426Z,101416.31
2023-05-08T09:39:54.654Z,101424.72
2023-05-08T09:42:21.364Z,101427.38
2023-05-08T09:44:52.944Z,101419.13
2023-05-08T09:47:22.278Z,101420.94
2023-05-08T09:50:03.215Z,101419.63
2023-05-08T09:52:30.910Z,101422.75
2023-05-08T09:55:02.146Z,101427.34
2023-05-08T09:57:30.275Z,101426.88
2023-05-08T10:00:05.912Z,101421.78
2023-05-08T10:02:32.910Z,101424.06
2023-05-08T10:04:59.338Z,101430.53
2023-05-08T10:07:33.378Z,101425.41
2023-05-08T10:10:07.023Z,101432.44
2023-05-08T10:12:33.709Z,101426.34
2023-05-08T10:15:00.719Z,101416.66
2023-05-08T10:17:53.469Z,101415.78
2023-05-08T10:20:21.721Z,101420.03
2023-05-08T10:22:48.931Z,101420.69
2023-05-08T10:25:17.683Z,101419.66
2023-05-08T10:28:13.216Z,101421.13
2023-05-08T10:30:50.552Z,101426.41
2023-05-08T10:33:21.518Z,101421.19
2023-05-08T10:35:48.100Z,101418.72
2023-05-08T10:38:16.405Z,101414.53
2023-05-08T10:40:43.168Z,101420.75
2023-05-08T10:43:10.708Z,101417.03
2023-05-08T10:45:37.917Z,101417.75
2023-05-08T10:48:25.584Z,101421.81
2023-05-08T10:51:02.819Z,101421.53
2023-05-08T10:53:47.945Z,101413.94
2023-05-08T10:56:14.367Z,101404.47
2023-05-08T10:58:40.848Z,101407.28
2023-05-08T11:01:07.914Z,101406.34
2023-05-08T11:03:43.395Z,101412.88
2023-05-08T11:06:10.096Z,101397.91
2023-05-08T11:08:50.625Z,101396.19
2023-05-08T11:11:30.263Z,101394.47
2023-05-08T11:14:11.930Z,101392.44
2023-05-08T11:17:03.704Z,101388.78
2023-05-08T11:19:30.854Z,101389.97
2023-05-08T11:22:14.542Z,101385.69
2023-05-08T11:24:48.563Z,101395.13
2023-05-08T11:27:15.845Z,101382.78
2023-05-08T11:29:42.373Z,101382.78
2023-05-08T11:32:08.766Z,101383.63
2023-05-08T11:34:44.678Z,101384.44
2023-05-08T11:37:18.302Z,101385.88
2023-05-08T11:39:44.764Z,101384.22
2023-05-08T11:42:40.596Z,101380.59
2023-05-08T11:45:10.629Z,101389.13
2023-05-08T11:47:41.243Z,101383.03
2023-05-08T11:50:09.297Z,101383.03
2023-05-08T11:52:37.123Z,101387.44
2023-05-08T11:55:05.117Z,101395.22
2023-05-08T11:57:34.964Z,101383.13
2023-05-08T12:00:09.861Z,101384.53
2023-05-08T12:02:37.054Z,101382.63
2023-05-08T12:05:03.903Z,101385.44
2023-05-08T12:07:31.272Z,101386.63
2023-05-08T12:09:58.756Z,101378.78
2023-05-08T12:12:36.828Z,101383.13
2023-05-08T12:15:07.357Z,101372.28
2023-05-08T12:17:38.217Z,101377.88
2023-05-08T12:20:15.715Z,101377.94
2023-05-08T12:22:49.483Z,101368.56
2023-05-08T12:25:17.446Z,101376.00
2023-05-08T12:27:44.877Z,101373.50
2023-05-08T12:30:14.040Z,101366.31
2023-05-08T12:32:42.353Z,101369.09
2023-05-08T12:35:10.183Z,101368.25
2023-05-08T12:37:36.741Z,101359.72
2023-05-08T12:40:04.198Z,101365.53
2023-05-08T12:42:49.686Z,101358.75
2023-05-08T12:45:28.018Z,101366.84
2023-05-08T12:48:00.321Z,101363.91
2023-05-08T12:50:26.926Z,101360.13
2023-05-08T12:52:53.508Z,101356.03
2023-05-08T12:55:28.124Z,101358.88
2023-05-08T12:58:05.950Z,101348.16
2023-05-08T13:00:38.209Z,101348.47
2023-05-08T13:03:05.420Z,101350.22
2023-05-08T13:05:31.959Z,101346.16
2023-05-08T13:08:09.141Z,101345.19
2023-05-08T13:10:50.210Z,101344.19
2023-05-08T13:13:19.195Z,101345.66
2023-05-08T13:15:46.150Z,101347.13
2023-05-08T13:18:12.816Z,101351.59
2023-05-08T13:20:39.686Z,101343.38
2023-05-08T13:23:06.475Z,101343.38
2023-05-08T13:25:33.040Z,101340.63
2023-05-08T13:28:00.306Z,101342.25
2023-05-08T13:30:26.843Z,101344.69
2023-05-08T13:33:09.215Z,101339.94
2023-05-08T13:35:36.081Z,101336.31
2023-05-08T13:38:02.793Z,101337.91
2023-05-08T13:40:29.734Z,101334.25
2023-05-08T13:42:56.101Z,101337.25
2023-05-08T13:45:22.902Z,101332.03
2023-05-08T13:47:50.008Z,101332.56
2023-05-08T13:50:19.305Z,101322.69
2023-05-08T13:52:45.770Z,101327.50
2023-05-08T13:55:13.689Z,101326.50
2023-05-08T13:57:40.696Z,101329.63
2023-05-08T14:00:08.924Z,101328.31
2023-05-08T14:02:35.784Z,101326.41
2023-05-08T14:05:02.193Z,101325.88
2023-05-08T14:07:29.899Z,101311.00
2023-05-08T14:09:56.363Z,101313.47
2023-05-08T14:12:22.873Z,101309.88
2023-05-08T14:14:49.293Z,101304.38
2023-05-08T14:17:15.709Z,101308.50
2023-05-08T14:19:42.257Z,101304.31
2023-05-08T14:22:08.733Z,101310.97
2023-05-08T14:24:35.310Z,101306.00
2023-05-08T14:27:05.610Z,101304.91
2023-05-08T14:29:33.161Z,101304.38
2023-05-08T14:31:59.620Z,101304.94
2023-05-08T14:34:44.408Z,101300.81
2023-05-08T14:37:11.496Z,101289.22
2023-05-08T14:39:37.834Z,101290.06
2023-05-08T14:44:33.599Z,101287.25
2023-05-08T14:47:00.028Z,101280.63
2023-05-08T14:49:36.555Z,101282.53
2023-05-08T14:52:05.531Z,101282.72
2023-05-08T14:54:32.103Z,101279.09
2023-05-08T14:56:58.795Z,101271.06
2023-05-08T14:59:25.239Z,101274.84
2023-05-08T15:01:51.693Z,101274.78
2023-05-08T15:04:18.220Z,101279.16
2023-05-08T15:06:44.856Z,101289.06
2023-05-08T15:09:11.252Z,101279.66
2023-05-08T15:11:37.695Z,101282.34
2023-05-08T15:14:05.338Z,101285.31
2023-05-08T15:16:31.861Z,101279.50
2023-05-08T15:18:58.327Z,101284.44
2023-05-08T15:21:26.715Z,101277.50
2023-05-08T15:23:54.982Z,101275.00
2023-05-08T15:26:22.676Z,101276.34
2023-05-08T15:28:49.477Z,101279.97
2023-05-08T15:31:16.187Z,101283.28
2023-05-08T15:33:44.960Z,101276.16
2023-05-08T15:36:13.380Z,101274.03
2023-05-08T15:38:40.989Z,101273.28
2023-05-08T15:41:07.851Z,101261.50
2023-05-08T15:43:34.221Z,101260.78
2023-05-08T15:46:00.670Z,101261.72
2023-05-08T15:48:27.172Z,101265.38
2023-05-08T15:50:53.589Z,101266.03
2023-05-08T15:53:19.931Z,101263.34
2023-05-08T15:55:46.410Z,101255.50
2023-05-08T15:58:12.781Z,101254.16
2023-05-08T16:00:44.717Z,101266.13
2023-05-08T16:03:12.251Z,101259.81
2023-05-08T16:05:39.407Z,101257.69
2023-05-08T16:08:05.988Z,101259.63
2023-05-08T16:10:32.344Z,101261.28
2023-05-08T16:12:58.804Z,101255.19
2023-05-08T16:15:25.472Z,101244.09
2023-05-08T16:17:51.808Z,101246.28
2023-05-08T16:20:18.197Z,101257.84
2023-05-08T16:22:44.638Z,101254.53
2023-05-08T16:25:11.055Z,101250.06
2023-05-08T16:27:37.589Z,101256.69
2023-05-08T16:30:04.308Z,101257.19
2023-05-08T16:32:30.758Z,101248.84
2023-05-08T16:34:57.266Z,101252.06
2023-05-08T16:37:23.706Z,101261.94
2023-05-08T16:39:50.080Z,101257.38
2023-05-08T16:42:18.779Z,101265.00
2023-05-08T16:44:45.326Z,101264.53
2023-05-08T16:47:11.802Z,101266.81
2023-05-08T16:49:38.411Z,101262.78
2023-05-08T16:52:04.742Z,101262.53
2023-05-08T16:54:31.184Z,101261.22
2023-05-08T16:56:57.758Z,101268.13
2023-05-08T16:59:24.186Z,101263.50
2023-05-08T17:01:50.600Z,101262.25
2023-05-08T17:04:16.967Z,101253.34
2023-05-08T17:06:43.336Z,101259.59
2023-05-08T17:09:09.805Z,101254.34
2023-05-08T17:11:36.189Z,101258.75
2023-05-08T17:14:02.681Z,101252.75
2023-05-08T17:16:29.143Z,101248.47
2023-05-08T17:18:55.728Z,101259.75
2023-05-08T17:21:22.164Z,101240.97
2023-05-08T17:23:48.628Z,101236.81
2023-05-08T17:26:15.117Z,101245.66
2023-05-08T17:28:41.724Z,101239.25
2023-05-08T17:31:08.134Z,101240.53
2023-05-08T17:33:34.537Z,101237.88
2023-05-08T17:36:02.275Z,101232.41
2023-05-08T17:38:28.630Z,101244.84
2023-05-08T17:40:56.304Z,101251.41
2023-05-08T17:43:22.896Z,101244.41
2023-05-08T17:45:49.312Z,101247.06
2023-05-08T17:48:15.698Z,101245.84
2023-05-08T17:50:43.499Z,101248.53
2023-05-08T17:53:10.001Z,101250.59
2023-05-08T17:55:37.043Z,101247.19
2023-05-08T17:58:03.482Z,101245.88
2023-05-08T18:00:29.841Z,101246.78
2023-05-08T18:02:56.255Z,101242.19
2023-05-08T18:05:22.866Z,101250.13
2023-05-08T18:08:02.523Z,101247.91
2023-05-08T18:10:28.948Z,101250.63
2023-05-08T18:12:55.434Z,101248.59
2023-05-08T18:15:21.837Z,101248.25
2023-05-08T18:17:48.315Z,101249.00
2023-05-08T18:20:15.891Z,101255.78
2023-05-08T18:22:42.310Z,101256.78
2023-05-08T18:25:08.825Z,101253.97
2023-05-08T18:27:35.352Z,101252.81
2023-05-08T18:30:01.993Z,101250.31
2023-05-08T18:32:29.052Z,101254.13
2023-05-08T18:34:56.741Z,101256.06
2023-05-08T18:37:23.202Z,101261.56
2023-05-08T18:39:50.005Z,101258.81
2023-05-08T18:42:16.409Z,101265.72
2023-05-08T18:44:43.905Z,101274.78
2023-05-08T18:47:10.237Z,101265.25
2023-05-08T18:49:36.710Z,101262.81
2023-05-08T18:52:08.487Z,101270.78
2023-05-08T18:54:34.885Z,101265.03
2023-05-08T18:57:04.990Z,101269.41
2023-05-08T18:59:31.375Z,101272.69
2023-05-08T19:01:58.113Z,101266.94
2023-05-08T19:04:24.501Z,101257.94
2023-05-08T19:06:50.899Z,101261.03
2023-05-08T19:09:17.273Z,101255.38
2023-05-08T19:11:43.637Z,101264.50
2023-05-08T19:14:10.865Z,101266.03
2023-05-08T19:16:37.272Z,101262.56
2023-05-08T19:19:03.642Z,101267.06
2023-05-08T19:21:31.899Z,101271.50
2023-05-08T19:23:58.251Z,101268.63
2023-05-08T19:26:24.647Z,101278.38
2023-05-08T19:28:51.081Z,101278.22
2023-05-08T19:31:17.584Z,101263.28
2023-05-08T19:33:43.993Z,101274.72
2023-05-08T19:36:10.418Z,101268.03
2023-05-08T19:38:39.967Z,101273.97
2023-05-08T19:41:11.481Z,101275.00
2023-05-08T19:43:37.897Z,101279.28
2023-05-08T19:46:16.825Z,101276.13
2023-05-08T19:48:43.251Z,101275.09
2023-05-08T19:51:11.434Z,101282.94
2023-05-08T19:53:38.132Z,101281.69
2023-05-08T19:56:06.780Z,101280.50
2023-05-08T19:58:33.274Z,101273.56
2023-05-08T20:00:59.725Z,101279.72
2023-05-08T20:03:26.348Z,101263.97
2023-05-08T20:05:53.817Z,101273.69
2023-05-08T20:08:20.471Z,101273.53
2023-05-08T20:10:49.741Z,101269.53
2023-05-08T20:13:17.650Z,101265.59
2023-05-08T20:15:45.359Z,101261.63
2023-05-08T20:18:12.232Z,101259.56
2023-05-08T20:20:39.199Z,101254.75
2023-05-08T20:23:06.078Z,101258.16
2023-05-08T20:25:32.777Z,101256.09
2023-05-08T20:27:59.709Z,101251.72
2023-05-08T20:30:26.487Z,101245.22
2023-05-08T20:32:53.019Z,101245.03
2023-05-08T20:35:19.732Z,101256.00
2023-05-08T20:37:47.579Z,101245.13
2023-05-08T20:40:15.152Z,101244.31
2023-05-08T20:42:42.097Z,101240.81
2023-05-08T20:45:09.486Z,101250.94
2023-05-08T20:47:36.152Z,101249.91
2023-05-08T20:50:03.145Z,101251.84
2023-05-08T20:52:32.069Z,101249.13
2023-05-08T20:54:58.881Z,101252.72
2023-05-08T20:57:25.863Z,101246.25
2023-05-08T20:59:52.268Z,101244.38
2023-05-08T21:02:18.761Z,101243.28
2023-05-08T21:04:45.299Z,101243.97
2023-05-08T21:07:11.885Z,101236.63
2023-05-08T21:09:38.302Z,101234.56
2023-05-08T21:12:04.829Z,101236.03
2023-05-08T21:14:31.303Z,101229.53
2023-05-08T21:16:57.757Z,101220.97
2023-05-08T21:19:24.157Z,101222.63
2023-05-08T21:21:50.689Z,101223.47
2023-05-08T21:24:17.137Z,101223.50
2023-05-08T21:26:43.472Z,101218.88
2023-05-08T21:29:10.821Z,101220.81
2023-05-08T21:31:37.325Z,101218.91
2023-05-08T21:34:04.166Z,101212.63
2023-05-08T21:36:32.056Z,101215.16
2023-05-08T21:38:58.459Z,101209.47
2023-05-08T21:41:24.934Z,101209.28
2023-05-08T21:43:51.269Z,101210.72
2023-05-08T21:46:17.687Z,101209.47
2023-05-08T21:48:44.081Z,101204.44
2023-05-08T21:51:10.437Z,101201.28
2023-05-08T21:53:37.045Z,101201.72
2023-05-08T21:56:03.521Z,101197.53
2023-05-08T21:58:29.864Z,101197.94
2023-05-08T22:00:58.383Z,101197.31
2023-05-08T22:03:25.228Z,101199.41
2023-05-08T22:05:51.762Z,101194.38
2023-05-08T22:08:18.148Z,101193.75
2023-05-08T22:10:44.684Z,101201.28
2023-05-08T22:13:13.189Z,101196.25
2023-05-08T22:15:39.750Z,101201.69
2023-05-08T22:18:06.154Z,101195.00
2023-05-08T22:20:33.260Z,101202.53
2023-05-08T22:22:59.660Z,101199.16
2023-05-08T22:25:26.613Z,101189.53
2023-05-08T22:27:53.181Z,101190.78
2023-05-08T22:30:19.655Z,101193.31
2023-05-08T22:32:53.124Z,101185.34
2023-05-08T22:35:22.245Z,101181.97
2023-05-08T22:37:48.605Z,101178.66
2023-05-08T22:40:14.955Z,101173.59
2023-05-08T22:42:41.914Z,101174.88
2023-05-08T22:45:09.030Z,101174.44
2023-05-08T22:47:35.563Z,101177.38
2023-05-08T22:50:03.496Z,101173.19
2023-05-08T22:52:29.845Z,101175.25
2023-05-08T22:54:56.189Z,101169.19
2023-05-08T22:57:22.632Z,101165.63
2023-05-08T22:59:48.966Z,101167.50
2023-05-08T23:02:15.302Z,101166.88
2023-05-08T23:04:41.765Z,101164.16
2023-05-08T23:07:08.154Z,101166.03
2023-05-08T23:09:34.499Z,101158.91
2023-05-08T23:12:01.041Z,101157.00
2023-05-08T23:14:27.410Z,101164.34
2023-05-08T23:16:53.776Z,101165.19
2023-05-08T23:19:20.217Z,101156.19
2023-05-08T23:21:46.579Z,101158.06
2023-05-08T23:24:13.017Z,101150.97
2023-05-08T23:26:41.932Z,101148.41
2023-05-08T23:29:08.674Z,101144.84
2023-05-08T23:31:35.114Z,101145.03
2023-05-08T23:34:01.836Z,101147.97
2023-05-08T23:36:28.205Z,101134.56
2023-05-08T23:38:54.565Z,101136.66
2023-05-08T23:41:20.974Z,101135.81
2023-05-08T23:43:47.369Z,101131.63
2023-05-08T23:46:13.869Z,101134.56
2023-05-08T23:48:40.396Z,101129.31
2023-05-08T23:51:06.764Z,101127.44
2023-05-08T23:53:33.090Z,101131.22
2023-05-08T23:55:59.568Z,101126.81
2023-05-08T23:58:26.248Z,101122.41
